Oban, United Kingdom
Current Conditions -  °F | °C
As of 3:50 PM on Friday 28 Nov 2014 (Local Time) from EGEO Reporting Station
Scattered Clouds Scattered Clouds  
Wind Chill: 52°   Ceiling: Unl
Heat Index: 52°   Visibility: 6mi
Dew Point: 45°   Wind: 7mph
Humidity: 76%   Direction: 100°E
Pressure: 29.8"   Gusts: NA
Location:  56.41°N, 5.47°W
Report Text: EGEO 281550Z 10006KT 9999 FEW022 SCT030 11/07 Q1009
Loading
Personal Weather Stations






























Interactive Weather Map New forecast layout! Learn more

10-Day Weather Forecast

Advertisements
Track Severe Weather on mobile